createdAt,value
2022-08-09T00:00:23.397Z,21.96
2022-08-09T00:02:53.175Z,21.88
2022-08-09T00:06:18.384Z,21.91
2022-08-09T00:08:12.896Z,21.84
2022-08-09T00:10:59.597Z,21.83
2022-08-09T00:13:31.769Z,21.80
2022-08-09T00:16:02.871Z,21.85
2022-08-09T00:18:34.916Z,21.79
2022-08-09T00:21:07.744Z,21.73
2022-08-09T00:23:55.965Z,21.71
2022-08-09T00:26:32.635Z,21.74
2022-08-09T00:29:03.052Z,21.47
2022-08-09T00:31:58.123Z,21.50
2022-08-09T00:34:20.852Z,21.49
2022-08-09T00:36:49.358Z,21.41
2022-08-09T00:40:12.061Z,21.44
2022-08-09T00:44:14.426Z,21.37
2022-08-09T00:44:53.777Z,21.36
2022-08-09T00:47:21.726Z,21.33
2022-08-09T00:49:56.490Z,21.27
2022-08-09T00:52:30.010Z,21.27
2022-08-09T00:55:00.881Z,21.17
2022-08-09T00:57:34.569Z,21.32
2022-08-09T01:00:21.145Z,21.35
2022-08-09T01:02:52.389Z,21.31
2022-08-09T01:05:46.403Z,21.33
2022-08-09T01:08:17.358Z,21.23
2022-08-09T01:11:04.332Z,21.14
2022-08-09T01:13:58.567Z,21.18
2022-08-09T01:16:31.464Z,21.06
2022-08-09T01:19:04.726Z,21.14
2022-08-09T01:21:50.860Z,21.13
2022-08-09T01:24:29.024Z,21.04
2022-08-09T01:27:02.960Z,21.07
2022-08-09T01:29:41.159Z,21.08
2022-08-09T01:32:43.870Z,21.01
2022-08-09T01:35:28.764Z,21.02
2022-08-09T01:38:10.006Z,20.97
2022-08-09T01:40:43.484Z,20.88
2022-08-09T01:43:13.198Z,20.81
2022-08-09T01:45:44.670Z,20.87
2022-08-09T01:48:15.454Z,20.79
2022-08-09T01:50:48.361Z,20.72
2022-08-09T01:53:19.585Z,20.69
2022-08-09T01:55:49.208Z,20.65
2022-08-09T01:58:18.728Z,20.71
2022-08-09T02:00:53.015Z,20.63
2022-08-09T02:03:22.453Z,20.68
2022-08-09T02:06:04.254Z,20.68
2022-08-09T02:08:57.073Z,20.74
2022-08-09T02:11:23.842Z,20.70
2022-08-09T02:14:07.387Z,20.75
2022-08-09T02:16:59.710Z,20.64
2022-08-09T02:19:34.886Z,20.60
2022-08-09T02:22:11.168Z,20.64
2022-08-09T02:24:39.282Z,20.67
2022-08-09T02:27:10.457Z,20.68
2022-08-09T02:29:46.097Z,20.73
2022-08-09T02:32:18.489Z,20.58
2022-08-09T02:34:55.668Z,20.46
2022-08-09T02:37:31.443Z,20.53
2022-08-09T02:40:03.884Z,20.59
2022-08-09T02:42:39.904Z,20.58
2022-08-09T02:45:14.094Z,20.58
2022-08-09T02:47:46.433Z,20.47
2022-08-09T02:50:28.916Z,20.27
2022-08-09T02:53:00.181Z,20.42
2022-08-09T02:55:46.440Z,20.30
2022-08-09T02:58:35.594Z,20.34
2022-08-09T03:01:08.291Z,20.33
2022-08-09T03:04:17.872Z,20.31
2022-08-09T03:06:29.171Z,20.27
2022-08-09T03:08:57.996Z,20.06
2022-08-09T03:12:04.408Z,20.21
2022-08-09T03:14:15.899Z,20.09
2022-08-09T03:16:47.696Z,20.07
2022-08-09T03:19:59.710Z,20.07
2022-08-09T03:22:12.126Z,20.05
2022-08-09T03:25:06.436Z,19.95
2022-08-09T03:28:26.212Z,19.98
2022-08-09T03:30:33.521Z,20.02
2022-08-09T03:33:18.464Z,20.01
2022-08-09T03:36:12.878Z,19.97
2022-08-09T03:38:37.230Z,19.95
2022-08-09T03:41:09.988Z,19.78
2022-08-09T03:43:42.713Z,19.86
2022-08-09T03:46:27.427Z,20.07
2022-08-09T03:49:04.368Z,20.06
2022-08-09T03:51:54.123Z,20.10
2022-08-09T03:54:29.251Z,20.03
2022-08-09T03:56:58.428Z,19.85
2022-08-09T03:59:27.199Z,19.79
2022-08-09T04:02:10.469Z,19.73
2022-08-09T04:04:39.645Z,19.78
2022-08-09T04:07:14.483Z,19.76
2022-08-09T04:09:50.163Z,19.72
2022-08-09T04:12:36.276Z,19.67
2022-08-09T04:15:11.585Z,19.63
2022-08-09T04:17:52.607Z,19.68
2022-08-09T04:20:26.906Z,19.69
2022-08-09T04:22:56.881Z,19.68
2022-08-09T04:25:27.081Z,19.55
2022-08-09T04:28:00.006Z,19.54
2022-08-09T04:30:31.594Z,19.51
2022-08-09T04:33:01.688Z,19.48
2022-08-09T04:35:32.890Z,19.49
2022-08-09T04:38:03.725Z,19.37
2022-08-09T04:40:45.614Z,19.43
2022-08-09T04:43:13.982Z,19.52
2022-08-09T04:45:53.519Z,19.42
2022-08-09T04:48:23.909Z,19.34
2022-08-09T04:51:02.961Z,19.36
2022-08-09T04:53:31.513Z,19.43
2022-08-09T04:55:59.947Z,19.37
2022-08-09T04:58:28.980Z,19.29
2022-08-09T05:00:57.660Z,19.32
2022-08-09T05:03:40.234Z,19.42
2022-08-09T05:06:27.408Z,19.51
2022-08-09T05:09:00.698Z,19.61
2022-08-09T05:11:30.550Z,19.54
2022-08-09T05:14:00.022Z,19.42
2022-08-09T05:16:31.548Z,19.45
2022-08-09T05:19:00.719Z,19.49
2022-08-09T05:21:46.442Z,19.50
2022-08-09T05:24:15.486Z,19.23
2022-08-09T05:26:46.246Z,19.11
2022-08-09T05:29:20.996Z,19.39
2022-08-09T05:31:56.665Z,19.54
2022-08-09T05:34:30.141Z,19.61
2022-08-09T05:37:06.286Z,19.44
2022-08-09T05:39:35.628Z,19.58
2022-08-09T05:42:06.072Z,19.54
2022-08-09T05:44:34.909Z,19.63
2022-08-09T05:47:05.780Z,19.58
2022-08-09T05:50:24.510Z,19.76
2022-08-09T05:52:24.778Z,19.75
2022-08-09T05:54:52.652Z,19.75
2022-08-09T05:57:25.149Z,19.80
2022-08-09T06:00:13.125Z,19.63
2022-08-09T06:02:46.413Z,19.88
2022-08-09T06:05:14.766Z,19.78
2022-08-09T06:08:05.613Z,19.90
2022-08-09T06:10:38.883Z,19.91
2022-08-09T06:13:12.139Z,20.06
2022-08-09T06:15:46.957Z,20.06
2022-08-09T06:18:15.803Z,19.88
2022-08-09T06:20:49.863Z,19.89
2022-08-09T06:23:24.169Z,19.93
2022-08-09T06:26:11.906Z,19.79
2022-08-09T06:28:40.103Z,19.90
2022-08-09T06:31:12.543Z,19.68
2022-08-09T06:33:42.134Z,19.68
2022-08-09T06:36:16.546Z,19.92
2022-08-09T06:38:50.130Z,19.70
2022-08-09T06:41:20.524Z,19.84
2022-08-09T06:43:48.972Z,19.73
2022-08-09T06:46:39.981Z,19.93
2022-08-09T06:49:05.065Z,19.81
2022-08-09T06:51:33.600Z,19.76
2022-08-09T06:54:12.495Z,20.09
2022-08-09T06:56:46.186Z,20.03
2022-08-09T07:00:51.343Z,20.11
2022-08-09T07:02:04.667Z,20.00
2022-08-09T07:04:33.105Z,20.06
2022-08-09T07:07:04.929Z,20.18
2022-08-09T07:09:54.874Z,20.34
2022-08-09T07:12:22.908Z,20.65
2022-08-09T07:15:53.722Z,20.60
2022-08-09T07:17:56.421Z,20.47
2022-08-09T07:20:30.914Z,21.09
2022-08-09T07:22:59.317Z,20.95
2022-08-09T07:25:29.133Z,21.06
2022-08-09T07:27:56.886Z,21.00
2022-08-09T07:30:26.433Z,21.02
2022-08-09T07:33:00.602Z,21.30
2022-08-09T07:35:30.352Z,21.43
2022-08-09T07:38:17.409Z,21.23
2022-08-09T07:41:10.143Z,21.19
2022-08-09T07:43:41.163Z,21.58
2022-08-09T07:46:19.388Z,21.73
2022-08-09T07:48:52.904Z,22.14
2022-08-09T07:52:03.365Z,22.19
2022-08-09T07:54:15.266Z,22.18
2022-08-09T07:56:49.661Z,22.91
2022-08-09T07:59:34.218Z,22.25
2022-08-09T08:02:06.882Z,22.64
2022-08-09T08:04:37.727Z,23.29
2022-08-09T08:07:14.853Z,23.47
2022-08-09T08:10:05.587Z,23.30
2022-08-09T08:12:42.445Z,23.19
2022-08-09T08:15:13.872Z,23.13
2022-08-09T08:17:53.260Z,23.30
2022-08-09T08:20:29.505Z,23.77
2022-08-09T08:23:01.467Z,23.70
2022-08-09T08:25:40.425Z,23.36
2022-08-09T08:28:14.304Z,23.67
2022-08-09T08:30:43.708Z,23.70
2022-08-09T08:33:23.710Z,23.99
2022-08-09T08:35:59.089Z,23.92
2022-08-09T08:38:29.883Z,24.23
2022-08-09T08:40:59.130Z,23.80
2022-08-09T08:43:28.255Z,23.86
2022-08-09T08:46:03.939Z,23.96
2022-08-09T08:48:51.478Z,24.57
2022-08-09T08:51:22.522Z,24.73
2022-08-09T08:54:03.236Z,24.78
2022-08-09T08:56:35.389Z,24.85
2022-08-09T08:59:20.109Z,24.71
2022-08-09T09:01:52.854Z,24.85
2022-08-09T09:04:29.763Z,24.43
2022-08-09T09:07:06.085Z,25.13
2022-08-09T09:09:58.568Z,25.19
2022-08-09T09:12:30.244Z,24.65
2022-08-09T09:15:02.032Z,24.87
2022-08-09T09:17:48.159Z,24.85
2022-08-09T09:20:17.655Z,25.02
2022-08-09T09:22:56.282Z,25.00
2022-08-09T09:26:02.078Z,25.63
2022-08-09T09:29:02.387Z,25.08
2022-08-09T09:32:05.747Z,24.88
2022-08-09T09:34:14.666Z,25.24
2022-08-09T09:36:53.246Z,25.31
2022-08-09T09:39:42.731Z,25.00
2022-08-09T09:42:23.128Z,24.92
2022-08-09T09:44:57.773Z,24.97
2022-08-09T09:47:28.773Z,25.05
2022-08-09T09:50:14.145Z,25.05
2022-08-09T09:52:53.618Z,25.38
2022-08-09T09:55:32.069Z,25.11
2022-08-09T09:58:15.771Z,25.95
2022-08-09T10:00:52.521Z,25.20
2022-08-09T10:03:57.758Z,25.97
2022-08-09T10:06:32.211Z,25.78
2022-08-09T10:09:11.923Z,25.69
2022-08-09T10:12:04.502Z,25.62
2022-08-09T10:14:39.403Z,26.21
2022-08-09T10:17:40.649Z,25.97
2022-08-09T10:20:00.744Z,26.25
2022-08-09T10:22:33.640Z,26.36
2022-08-09T10:25:11.257Z,26.36
2022-08-09T10:27:55.856Z,26.08
2022-08-09T10:33:29.950Z,26.00
2022-08-09T10:36:03.044Z,25.88
2022-08-09T10:38:43.174Z,26.01
2022-08-09T10:41:20.719Z,26.32
2022-08-09T10:43:50.507Z,26.01
2022-08-09T10:46:55.791Z,26.11
2022-08-09T10:49:49.890Z,25.75
2022-08-09T10:52:35.590Z,25.77
2022-08-09T10:55:22.829Z,25.62
2022-08-09T10:57:51.679Z,26.22
2022-08-09T11:01:10.836Z,26.37
2022-08-09T11:03:50.631Z,26.24
2022-08-09T11:06:18.792Z,25.80
2022-08-09T11:08:53.029Z,26.44
2022-08-09T11:11:22.865Z,26.24
2022-08-09T11:14:31.675Z,26.24
2022-08-09T11:17:00.067Z,26.07
2022-08-09T11:20:10.637Z,26.09
2022-08-09T11:22:59.111Z,26.35
2022-08-09T11:25:47.906Z,26.31
2022-08-09T11:28:38.908Z,26.08
2022-08-09T11:31:49.426Z,26.28
2022-08-09T11:34:29.084Z,26.10
2022-08-09T11:37:00.285Z,26.15
2022-08-09T11:39:38.002Z,26.16
2022-08-09T11:42:14.677Z,26.50
2022-08-09T11:44:48.217Z,26.54
2022-08-09T11:47:16.558Z,26.06
2022-08-09T11:50:55.897Z,26.47
2022-08-09T11:54:01.416Z,26.43
2022-08-09T11:56:41.706Z,25.82
2022-08-09T11:59:14.115Z,25.74
2022-08-09T12:02:34.776Z,25.96
2022-08-09T12:04:32.407Z,26.12
2022-08-09T12:07:08.209Z,25.72
2022-08-09T12:09:37.133Z,25.83
2022-08-09T12:12:12.360Z,25.89
2022-08-09T12:15:03.790Z,26.24
2022-08-09T12:17:43.239Z,25.87
2022-08-09T12:20:16.531Z,26.58
2022-08-09T12:22:50.690Z,26.07
2022-08-09T12:25:34.715Z,26.13
2022-08-09T12:28:58.298Z,26.44
2022-08-09T12:31:10.887Z,26.73
2022-08-09T12:34:00.755Z,27.08
2022-08-09T12:36:31.869Z,27.05
2022-08-09T12:39:02.303Z,26.57
2022-08-09T12:41:36.302Z,26.89
2022-08-09T12:44:09.857Z,26.92
2022-08-09T12:46:48.959Z,26.87
2022-08-09T12:49:18.304Z,26.99
2022-08-09T12:52:02.722Z,27.08
2022-08-09T12:54:31.275Z,27.35
2022-08-09T12:56:59.822Z,27.62
2022-08-09T12:59:39.748Z,27.50
2022-08-09T13:02:22.421Z,27.09
2022-08-09T13:05:02.594Z,27.50
2022-08-09T13:07:51.246Z,27.10
2022-08-09T13:10:18.617Z,27.32
2022-08-09T13:13:09.077Z,27.06
2022-08-09T13:15:37.481Z,27.13
2022-08-09T13:18:17.496Z,27.06
2022-08-09T13:22:34.112Z,26.96
2022-08-09T13:24:07.300Z,26.76
2022-08-09T13:26:36.770Z,26.88
2022-08-09T13:29:10.134Z,26.72
2022-08-09T13:32:15.270Z,26.58
2022-08-09T13:34:45.204Z,26.65
2022-08-09T13:37:14.989Z,26.86
2022-08-09T13:41:54.160Z,26.99
2022-08-09T13:42:50.759Z,26.98
2022-08-09T13:45:18.804Z,27.07
2022-08-09T13:47:51.229Z,27.11
2022-08-09T13:50:31.062Z,27.14
2022-08-09T13:52:59.640Z,27.39
2022-08-09T13:55:28.908Z,27.52
2022-08-09T13:57:58.486Z,27.48
2022-08-09T14:00:28.932Z,27.41
2022-08-09T14:03:03.414Z,27.29
2022-08-09T14:05:59.765Z,27.05
2022-08-09T14:08:30.282Z,27.16
2022-08-09T14:11:00.176Z,26.62
2022-08-09T14:14:23.003Z,26.56
2022-08-09T14:16:28.621Z,26.87
2022-08-09T14:18:58.184Z,26.81
2022-08-09T14:21:29.716Z,26.78
2022-08-09T14:24:01.242Z,26.77
2022-08-09T14:26:38.526Z,26.94
2022-08-09T14:30:18.339Z,26.89
2022-08-09T14:31:55.780Z,27.03
2022-08-09T14:34:30.854Z,26.78
2022-08-09T14:37:06.733Z,26.89
2022-08-09T14:39:47.418Z,26.92
2022-08-09T14:42:32.193Z,26.99
2022-08-09T14:46:40.227Z,26.92
2022-08-09T14:47:57.150Z,26.86
2022-08-09T14:50:27.780Z,26.83
2022-08-09T14:52:57.651Z,26.74
2022-08-09T14:55:25.856Z,26.48
2022-08-09T14:58:03.654Z,26.55
2022-08-09T15:00:33.510Z,26.49
2022-08-09T15:03:03.868Z,26.65
2022-08-09T15:05:31.767Z,26.59
2022-08-09T15:08:00.984Z,26.46
2022-08-09T15:10:31.690Z,26.39
2022-08-09T15:13:00.091Z,26.41
2022-08-09T15:15:29.549Z,26.38
2022-08-09T15:18:02.305Z,26.30
2022-08-09T15:21:58.159Z,26.54
2022-08-09T15:24:06.135Z,26.46
2022-08-09T15:26:09.147Z,26.27
2022-08-09T15:28:54.872Z,26.18
2022-08-09T15:31:28.480Z,26.10
2022-08-09T15:34:32.870Z,26.19
2022-08-09T15:36:56.625Z,26.44
2022-08-09T15:39:43.797Z,26.62
2022-08-09T15:42:15.215Z,26.81
2022-08-09T15:44:46.464Z,26.96
2022-08-09T15:47:22.769Z,26.62
2022-08-09T15:50:04.288Z,26.72
2022-08-09T15:52:34.691Z,26.86
2022-08-09T15:55:04.275Z,26.78
2022-08-09T15:57:35.083Z,26.89
2022-08-09T16:00:15.121Z,26.72
2022-08-09T16:02:54.245Z,26.89
2022-08-09T16:05:26.334Z,26.75
2022-08-09T16:07:54.049Z,26.96
2022-08-09T16:10:55.187Z,26.83
2022-08-09T16:13:21.047Z,26.92
2022-08-09T16:16:10.541Z,26.82
2022-08-09T16:18:45.567Z,26.81
2022-08-09T16:21:16.857Z,26.87
2022-08-09T16:23:50.920Z,26.97
2022-08-09T16:26:33.764Z,26.77
2022-08-09T16:29:10.999Z,26.77
2022-08-09T16:32:18.804Z,26.89
2022-08-09T16:34:29.813Z,26.88
2022-08-09T16:37:17.493Z,27.00
2022-08-09T16:39:54.824Z,26.81
2022-08-09T16:42:34.813Z,26.94
2022-08-09T16:45:04.526Z,27.21
2022-08-09T16:48:41.798Z,27.03
2022-08-09T16:50:31.253Z,26.92
2022-08-09T16:53:01.780Z,27.00
2022-08-09T16:55:44.125Z,26.68
2022-08-09T16:58:19.434Z,26.77
2022-08-09T17:00:49.557Z,26.74
2022-08-09T17:03:21.875Z,26.82
2022-08-09T17:06:07.196Z,27.07
2022-08-09T17:08:44.100Z,27.16
2022-08-09T17:11:40.273Z,26.92
2022-08-09T17:14:25.946Z,26.89
2022-08-09T17:16:59.464Z,27.09
2022-08-09T17:19:47.628Z,27.16
2022-08-09T17:22:16.153Z,26.88
2022-08-09T17:24:55.476Z,27.07
2022-08-09T17:27:23.933Z,26.95
2022-08-09T17:29:53.029Z,26.75
2022-08-09T17:32:34.850Z,26.80
2022-08-09T17:35:12.311Z,26.70
2022-08-09T17:38:02.349Z,26.59
2022-08-09T17:40:30.541Z,26.72
2022-08-09T17:43:03.277Z,26.72
2022-08-09T17:46:02.697Z,26.42
2022-08-09T17:48:28.449Z,26.33
2022-08-09T17:50:59.543Z,26.22
2022-08-09T17:53:43.188Z,26.30
2022-08-09T17:56:11.369Z,26.06
2022-08-09T17:58:39.080Z,26.04
2022-08-09T18:01:22.261Z,26.16
2022-08-09T18:03:50.828Z,26.01
2022-08-09T18:06:30.978Z,25.97
2022-08-09T18:09:03.697Z,26.03
2022-08-09T18:12:05.691Z,25.90
2022-08-09T18:14:21.618Z,26.11
2022-08-09T18:16:51.005Z,25.99
2022-08-09T18:20:54.792Z,25.91
2022-08-09T18:22:13.089Z,25.98
2022-08-09T18:24:45.557Z,25.94
2022-08-09T18:27:14.139Z,25.99
2022-08-09T18:30:35.288Z,25.97
2022-08-09T18:32:57.471Z,25.68
2022-08-09T18:35:47.958Z,25.65
2022-08-09T18:38:13.589Z,25.68
2022-08-09T18:40:42.901Z,25.65
2022-08-09T18:43:13.538Z,25.43
2022-08-09T18:46:49.688Z,25.64
2022-08-09T18:48:33.588Z,25.44
2022-08-09T18:51:03.871Z,25.13
2022-08-09T18:53:56.485Z,25.21
2022-08-09T18:56:28.256Z,25.23
2022-08-09T18:58:56.833Z,25.31
2022-08-09T19:01:25.441Z,25.13
2022-08-09T19:04:06.297Z,25.16
2022-08-09T19:06:38.396Z,25.14
2022-08-09T19:09:07.308Z,25.48
2022-08-09T19:11:38.176Z,25.06
2022-08-09T19:14:06.635Z,24.86
2022-08-09T19:16:36.582Z,24.95
2022-08-09T19:19:21.535Z,24.88
2022-08-09T19:22:06.811Z,25.29
2022-08-09T19:25:11.418Z,25.36
2022-08-09T19:27:23.540Z,24.90
2022-08-09T19:30:22.689Z,24.82
2022-08-09T19:32:44.068Z,25.33
2022-08-09T19:35:13.172Z,24.79
2022-08-09T19:37:56.202Z,24.97
2022-08-09T19:40:33.970Z,24.72
2022-08-09T19:43:03.787Z,24.78
2022-08-09T19:45:39.225Z,24.05
2022-08-09T19:48:11.003Z,24.25
2022-08-09T19:50:49.095Z,24.75
2022-08-09T19:53:20.637Z,24.71
2022-08-09T19:56:02.062Z,24.58
2022-08-09T19:58:33.699Z,24.53
2022-08-09T20:01:04.098Z,24.31
2022-08-09T20:04:18.428Z,24.55
2022-08-09T20:06:23.786Z,24.54
2022-08-09T20:08:56.967Z,24.75
2022-08-09T20:11:26.715Z,24.55
2022-08-09T20:13:55.122Z,24.26
2022-08-09T20:16:37.682Z,24.50
2022-08-09T20:19:49.361Z,24.03
2022-08-09T20:22:02.152Z,24.44
2022-08-09T20:24:34.204Z,24.74
2022-08-09T20:27:08.276Z,24.48
2022-08-09T20:29:38.958Z,24.51
2022-08-09T20:32:30.922Z,24.43
2022-08-09T20:34:56.257Z,24.47
2022-08-09T20:37:25.537Z,24.73
2022-08-09T20:40:18.996Z,24.67
2022-08-09T20:42:59.931Z,24.15
2022-08-09T20:45:57.474Z,23.86
2022-08-09T20:48:21.435Z,24.43
2022-08-09T20:50:55.644Z,24.09
2022-08-09T20:53:37.707Z,24.62
2022-08-09T20:56:09.301Z,23.96
2022-08-09T20:58:48.635Z,23.88
2022-08-09T21:01:34.767Z,24.21
2022-08-09T21:05:49.604Z,23.83
2022-08-09T21:06:53.609Z,23.69
2022-08-09T21:09:32.719Z,23.81
2022-08-09T21:14:42.131Z,23.91
2022-08-09T21:18:23.587Z,23.77
2022-08-09T21:20:22.995Z,23.96
2022-08-09T21:22:54.300Z,24.09
2022-08-09T21:25:43.832Z,24.05
2022-08-09T21:28:22.030Z,23.86
2022-08-09T21:31:17.636Z,23.42
2022-08-09T21:33:50.669Z,23.51
2022-08-09T21:36:20.974Z,23.89
2022-08-09T21:38:57.273Z,24.11
2022-08-09T21:42:05.006Z,23.87
2022-08-09T21:44:33.307Z,23.95
2022-08-09T21:47:04.623Z,24.27
2022-08-09T21:49:39.197Z,23.97
2022-08-09T21:52:16.314Z,24.04
2022-08-09T21:54:49.714Z,23.94
2022-08-09T21:57:37.866Z,23.80
2022-08-09T22:00:12.931Z,23.98
2022-08-09T22:02:42.908Z,24.06
2022-08-09T22:05:22.489Z,23.80
2022-08-09T22:07:53.191Z,23.82
2022-08-09T22:10:24.022Z,24.02
2022-08-09T22:12:53.544Z,24.27
2022-08-09T22:15:23.529Z,23.80
2022-08-09T22:18:04.846Z,23.49
2022-08-09T22:20:40.216Z,23.87
2022-08-09T22:23:10.551Z,24.10
2022-08-09T22:26:08.562Z,23.90
2022-08-09T22:28:33.222Z,23.83
2022-08-09T22:31:02.948Z,23.95
2022-08-09T22:33:42.637Z,23.52
2022-08-09T22:36:19.160Z,23.59
2022-08-09T22:38:48.348Z,23.35
2022-08-09T22:41:16.199Z,23.62
2022-08-09T22:44:00.676Z,23.82
2022-08-09T22:48:10.696Z,23.91
2022-08-09T22:49:18.463Z,23.86
2022-08-09T22:51:49.393Z,23.09
2022-08-09T22:54:27.113Z,23.34
2022-08-09T22:56:57.019Z,23.49
2022-08-09T22:59:56.774Z,23.31
2022-08-09T23:02:20.377Z,23.68
2022-08-09T23:04:53.701Z,23.64
2022-08-09T23:08:22.959Z,23.71
2022-08-09T23:10:29.756Z,23.82
2022-08-09T23:12:57.597Z,23.80
2022-08-09T23:15:26.921Z,23.67
2022-08-09T23:17:55.043Z,23.89
2022-08-09T23:20:22.925Z,23.86
2022-08-09T23:22:50.661Z,23.85
2022-08-09T23:25:18.529Z,23.56
2022-08-09T23:27:59.650Z,23.46
2022-08-09T23:30:35.313Z,23.66
2022-08-09T23:33:03.008Z,23.76
2022-08-09T23:35:30.822Z,23.70
2022-08-09T23:38:18.798Z,23.79
2022-08-09T23:40:46.676Z,23.72
2022-08-09T23:43:14.408Z,23.69
2022-08-09T23:45:43.531Z,23.73
2022-08-09T23:48:13.619Z,23.72
2022-08-09T23:50:42.034Z,23.54
2022-08-09T23:53:09.782Z,23.49
2022-08-09T23:55:39.490Z,23.50
2022-08-09T23:58:27.481Z,23.47
